sensor_id;sensor_type;location;lat;lon;timestamp;P1;durP1;ratioP1;P2;durP2;ratioP2
66587;SDS011;53446;50.076;8.198;2024-03-02T00:01:59;220.33;;;87.17;;
66587;SDS011;53446;50.076;8.198;2024-03-02T00:04:00;157.40;;;67.60;;
66587;SDS011;53446;50.076;8.198;2024-03-02T00:06:00;94.90;;;40.57;;
66587;SDS011;53446;50.076;8.198;2024-03-02T00:08:01;33.50;;;16.08;;
66587;SDS011;53446;50.076;8.198;2024-03-02T00:10:07;31.92;;;14.70;;
66587;SDS011;53446;50.076;8.198;2024-03-02T00:12:11;23.08;;;11.85;;
66587;SDS011;53446;50.076;8.198;2024-03-02T00:14:15;24.30;;;12.68;;
66587;SDS011;53446;50.076;8.198;2024-03-02T00:16:16;23.97;;;12.03;;
66587;SDS011;53446;50.076;8.198;2024-03-02T00:18:24;139.38;;;61.28;;
66587;SDS011;53446;50.076;8.198;2024-03-02T00:20:24;21.02;;;11.45;;
66587;SDS011;53446;50.076;8.198;2024-03-02T00:22:28;21.02;;;11.50;;
66587;SDS011;53446;50.076;8.198;2024-03-02T00:24:32;19.03;;;11.20;;
66587;SDS011;53446;50.076;8.198;2024-03-02T00:26:34;22.10;;;10.77;;
66587;SDS011;53446;50.076;8.198;2024-03-02T00:28:35;110.63;;;51.50;;
66587;SDS011;53446;50.076;8.198;2024-03-02T00:32:56;114.27;;;52.03;;
66587;SDS011;53446;50.076;8.198;2024-03-02T00:34:56;31.13;;;15.25;;
66587;SDS011;53446;50.076;8.198;2024-03-02T00:36:57;25.83;;;13.30;;
66587;SDS011;53446;50.076;8.198;2024-03-02T00:38:59;24.70;;;12.70;;
66587;SDS011;53446;50.076;8.198;2024-03-02T00:41:02;23.83;;;12.03;;
66587;SDS011;53446;50.076;8.198;2024-03-02T00:43:05;20.42;;;10.07;;
66587;SDS011;53446;50.076;8.198;2024-03-02T00:45:07;23.27;;;10.30;;
66587;SDS011;53446;50.076;8.198;2024-03-02T00:47:08;21.90;;;11.68;;
66587;SDS011;53446;50.076;8.198;2024-03-02T00:49:18;22.30;;;12.20;;
66587;SDS011;53446;50.076;8.198;2024-03-02T00:51:21;21.42;;;11.70;;
66587;SDS011;53446;50.076;8.198;2024-03-02T00:53:24;20.30;;;11.40;;
66587;SDS011;53446;50.076;8.198;2024-03-02T00:55:26;23.48;;;13.45;;
66587;SDS011;53446;50.076;8.198;2024-03-02T00:57:27;21.27;;;10.70;;
66587;SDS011;53446;50.076;8.198;2024-03-02T00:59:32;36.50;;;27.60;;
66587;SDS011;53446;50.076;8.198;2024-03-02T01:01:32;21.40;;;11.67;;
66587;SDS011;53446;50.076;8.198;2024-03-02T01:03:33;24.70;;;12.57;;
66587;SDS011;53446;50.076;8.198;2024-03-02T01:05:34;20.85;;;11.38;;
66587;SDS011;53446;50.076;8.198;2024-03-02T01:07:37;44.58;;;29.02;;
66587;SDS011;53446;50.076;8.198;2024-03-02T01:09:38;27.13;;;16.17;;
66587;SDS011;53446;50.076;8.198;2024-03-02T01:11:39;23.33;;;12.27;;
66587;SDS011;53446;50.076;8.198;2024-03-02T01:13:39;21.13;;;12.27;;
66587;SDS011;53446;50.076;8.198;2024-03-02T01:15:40;22.57;;;12.07;;
66587;SDS011;53446;50.076;8.198;2024-03-02T01:17:40;20.07;;;11.50;;
66587;SDS011;53446;50.076;8.198;2024-03-02T01:19:41;24.00;;;13.03;;
66587;SDS011;53446;50.076;8.198;2024-03-02T01:21:41;27.13;;;13.00;;
66587;SDS011;53446;50.076;8.198;2024-03-02T01:23:42;22.37;;;10.77;;
66587;SDS011;53446;50.076;8.198;2024-03-02T01:25:42;25.03;;;12.07;;
66587;SDS011;53446;50.076;8.198;2024-03-02T01:27:42;24.83;;;12.63;;
66587;SDS011;53446;50.076;8.198;2024-03-02T01:29:42;28.00;;;14.47;;
66587;SDS011;53446;50.076;8.198;2024-03-02T01:31:43;24.50;;;13.23;;
66587;SDS011;53446;50.076;8.198;2024-03-02T01:33:43;22.27;;;11.27;;
66587;SDS011;53446;50.076;8.198;2024-03-02T01:35:43;21.07;;;10.77;;
66587;SDS011;53446;50.076;8.198;2024-03-02T01:37:44;26.10;;;14.63;;
66587;SDS011;53446;50.076;8.198;2024-03-02T01:39:44;25.73;;;13.38;;
66587;SDS011;53446;50.076;8.198;2024-03-02T01:41:44;29.30;;;14.55;;
66587;SDS011;53446;50.076;8.198;2024-03-02T01:43:45;24.70;;;13.33;;
66587;SDS011;53446;50.076;8.198;2024-03-02T01:45:45;30.97;;;14.60;;
66587;SDS011;53446;50.076;8.198;2024-03-02T01:47:45;24.40;;;13.43;;
66587;SDS011;53446;50.076;8.198;2024-03-02T01:49:46;20.67;;;11.80;;
66587;SDS011;53446;50.076;8.198;2024-03-02T01:51:46;23.10;;;11.40;;
66587;SDS011;53446;50.076;8.198;2024-03-02T01:53:46;21.60;;;10.87;;
66587;SDS011;53446;50.076;8.198;2024-03-02T01:55:46;22.77;;;11.27;;
66587;SDS011;53446;50.076;8.198;2024-03-02T01:57:47;22.77;;;11.03;;
66587;SDS011;53446;50.076;8.198;2024-03-02T01:59:48;22.25;;;11.35;;
66587;SDS011;53446;50.076;8.198;2024-03-02T02:01:48;24.57;;;12.83;;
66587;SDS011;53446;50.076;8.198;2024-03-02T02:03:49;22.55;;;11.30;;
66587;SDS011;53446;50.076;8.198;2024-03-02T02:05:49;24.33;;;11.53;;
66587;SDS011;53446;50.076;8.198;2024-03-02T02:07:50;24.73;;;12.33;;
66587;SDS011;53446;50.076;8.198;2024-03-02T02:09:50;21.93;;;11.37;;
66587;SDS011;53446;50.076;8.198;2024-03-02T02:11:51;20.75;;;10.40;;
66587;SDS011;53446;50.076;8.198;2024-03-02T02:13:52;25.52;;;13.68;;
66587;SDS011;53446;50.076;8.198;2024-03-02T02:15:52;26.67;;;13.77;;
66587;SDS011;53446;50.076;8.198;2024-03-02T02:17:53;28.77;;;13.80;;
66587;SDS011;53446;50.076;8.198;2024-03-02T02:19:54;29.73;;;15.45;;
66587;SDS011;53446;50.076;8.198;2024-03-02T02:21:54;31.97;;;14.57;;
66587;SDS011;53446;50.076;8.198;2024-03-02T02:23:55;28.47;;;13.30;;
66587;SDS011;53446;50.076;8.198;2024-03-02T02:25:55;26.85;;;14.82;;
66587;SDS011;53446;50.076;8.198;2024-03-02T02:27:55;27.63;;;13.50;;
66587;SDS011;53446;50.076;8.198;2024-03-02T02:29:57;27.40;;;12.70;;
66587;SDS011;53446;50.076;8.198;2024-03-02T02:31:57;26.63;;;12.87;;
66587;SDS011;53446;50.076;8.198;2024-03-02T02:33:57;27.20;;;14.10;;
66587;SDS011;53446;50.076;8.198;2024-03-02T02:35:57;27.70;;;13.50;;
66587;SDS011;53446;50.076;8.198;2024-03-02T02:37:57;28.48;;;14.98;;
66587;SDS011;53446;50.076;8.198;2024-03-02T02:40:01;27.30;;;13.73;;
66587;SDS011;53446;50.076;8.198;2024-03-02T02:42:02;28.83;;;14.43;;
66587;SDS011;53446;50.076;8.198;2024-03-02T02:44:02;28.00;;;13.97;;
66587;SDS011;53446;50.076;8.198;2024-03-02T02:46:03;22.05;;;11.18;;
66587;SDS011;53446;50.076;8.198;2024-03-02T02:48:03;26.97;;;14.40;;
66587;SDS011;53446;50.076;8.198;2024-03-02T02:50:06;27.73;;;14.15;;
66587;SDS011;53446;50.076;8.198;2024-03-02T02:52:07;27.92;;;14.23;;
66587;SDS011;53446;50.076;8.198;2024-03-02T02:54:08;27.30;;;14.63;;
66587;SDS011;53446;50.076;8.198;2024-03-02T02:56:08;25.87;;;13.30;;
66587;SDS011;53446;50.076;8.198;2024-03-02T02:58:09;32.03;;;16.20;;
66587;SDS011;53446;50.076;8.198;2024-03-02T03:00:10;29.40;;;14.40;;
66587;SDS011;53446;50.076;8.198;2024-03-02T03:02:15;29.15;;;15.10;;
66587;SDS011;53446;50.076;8.198;2024-03-02T03:04:16;28.65;;;14.50;;
66587;SDS011;53446;50.076;8.198;2024-03-02T03:06:16;27.13;;;14.37;;
66587;SDS011;53446;50.076;8.198;2024-03-02T03:08:16;30.67;;;14.33;;
66587;SDS011;53446;50.076;8.198;2024-03-02T03:10:17;31.83;;;15.03;;
66587;SDS011;53446;50.076;8.198;2024-03-02T03:12:17;31.67;;;16.00;;
66587;SDS011;53446;50.076;8.198;2024-03-02T03:14:17;23.13;;;12.00;;
66587;SDS011;53446;50.076;8.198;2024-03-02T03:16:17;29.77;;;14.30;;
66587;SDS011;53446;50.076;8.198;2024-03-02T03:18:18;31.63;;;15.87;;
66587;SDS011;53446;50.076;8.198;2024-03-02T03:20:18;28.45;;;13.85;;
66587;SDS011;53446;50.076;8.198;2024-03-02T03:22:21;30.85;;;15.50;;
66587;SDS011;53446;50.076;8.198;2024-03-02T03:24:21;27.07;;;13.40;;
66587;SDS011;53446;50.076;8.198;2024-03-02T03:26:22;27.37;;;13.97;;
66587;SDS011;53446;50.076;8.198;2024-03-02T03:28:22;32.17;;;15.27;;
66587;SDS011;53446;50.076;8.198;2024-03-02T03:30:22;33.87;;;16.93;;
66587;SDS011;53446;50.076;8.198;2024-03-02T03:32:22;31.07;;;15.37;;
66587;SDS011;53446;50.076;8.198;2024-03-02T03:34:23;33.67;;;15.67;;
66587;SDS011;53446;50.076;8.198;2024-03-02T03:36:24;33.70;;;15.07;;
66587;SDS011;53446;50.076;8.198;2024-03-02T03:38:24;26.47;;;13.87;;
66587;SDS011;53446;50.076;8.198;2024-03-02T03:40:25;27.17;;;13.53;;
66587;SDS011;53446;50.076;8.198;2024-03-02T03:42:25;29.00;;;14.27;;
66587;SDS011;53446;50.076;8.198;2024-03-02T03:44:26;22.20;;;11.87;;
66587;SDS011;53446;50.076;8.198;2024-03-02T03:46:26;23.20;;;11.30;;
66587;SDS011;53446;50.076;8.198;2024-03-02T03:48:26;22.23;;;11.30;;
66587;SDS011;53446;50.076;8.198;2024-03-02T03:50:30;29.90;;;15.35;;
66587;SDS011;53446;50.076;8.198;2024-03-02T03:52:30;24.50;;;13.07;;
66587;SDS011;53446;50.076;8.198;2024-03-02T03:54:31;32.83;;;15.43;;
66587;SDS011;53446;50.076;8.198;2024-03-02T03:56:31;21.93;;;11.33;;
66587;SDS011;53446;50.076;8.198;2024-03-02T03:58:31;22.90;;;12.43;;
66587;SDS011;53446;50.076;8.198;2024-03-02T04:00:31;31.10;;;14.90;;
66587;SDS011;53446;50.076;8.198;2024-03-02T04:02:32;26.83;;;13.47;;
66587;SDS011;53446;50.076;8.198;2024-03-02T04:04:32;31.08;;;14.75;;
66587;SDS011;53446;50.076;8.198;2024-03-02T04:06:33;33.80;;;14.90;;
66587;SDS011;53446;50.076;8.198;2024-03-02T04:08:34;29.08;;;14.30;;
66587;SDS011;53446;50.076;8.198;2024-03-02T04:10:34;23.10;;;11.03;;
66587;SDS011;53446;50.076;8.198;2024-03-02T04:12:38;29.07;;;13.80;;
66587;SDS011;53446;50.076;8.198;2024-03-02T04:14:38;27.77;;;13.38;;
66587;SDS011;53446;50.076;8.198;2024-03-02T04:16:38;31.07;;;15.10;;
66587;SDS011;53446;50.076;8.198;2024-03-02T04:18:39;30.33;;;13.60;;
66587;SDS011;53446;50.076;8.198;2024-03-02T04:20:39;30.40;;;13.73;;
66587;SDS011;53446;50.076;8.198;2024-03-02T04:22:39;30.73;;;14.93;;
66587;SDS011;53446;50.076;8.198;2024-03-02T04:24:40;30.37;;;14.77;;
66587;SDS011;53446;50.076;8.198;2024-03-02T04:26:40;32.53;;;15.60;;
66587;SDS011;53446;50.076;8.198;2024-03-02T04:28:40;33.73;;;16.07;;
66587;SDS011;53446;50.076;8.198;2024-03-02T04:30:40;29.50;;;14.87;;
66587;SDS011;53446;50.076;8.198;2024-03-02T04:32:41;25.25;;;12.20;;
66587;SDS011;53446;50.076;8.198;2024-03-02T04:34:46;23.63;;;11.77;;
66587;SDS011;53446;50.076;8.198;2024-03-02T04:36:46;24.60;;;12.23;;
66587;SDS011;53446;50.076;8.198;2024-03-02T04:38:46;56.97;;;24.77;;
66587;SDS011;53446;50.076;8.198;2024-03-02T04:40:46;55.78;;;24.00;;
66587;SDS011;53446;50.076;8.198;2024-03-02T04:42:47;54.57;;;23.50;;
66587;SDS011;53446;50.076;8.198;2024-03-02T04:44:47;36.07;;;17.00;;
66587;SDS011;53446;50.076;8.198;2024-03-02T04:46:47;46.43;;;20.97;;
66587;SDS011;53446;50.076;8.198;2024-03-02T04:48:48;34.07;;;15.90;;
66587;SDS011;53446;50.076;8.198;2024-03-02T04:50:54;31.88;;;15.40;;
66587;SDS011;53446;50.076;8.198;2024-03-02T04:52:55;29.93;;;15.13;;
66587;SDS011;53446;50.076;8.198;2024-03-02T04:54:55;35.43;;;16.63;;
66587;SDS011;53446;50.076;8.198;2024-03-02T04:57:14;41.80;;;19.90;;
66587;SDS011;53446;50.076;8.198;2024-03-02T04:59:15;31.80;;;14.77;;
66587;SDS011;53446;50.076;8.198;2024-03-02T05:01:16;28.20;;;13.30;;
66587;SDS011;53446;50.076;8.198;2024-03-02T05:03:17;29.10;;;13.57;;
66587;SDS011;53446;50.076;8.198;2024-03-02T05:05:17;24.80;;;13.17;;
66587;SDS011;53446;50.076;8.198;2024-03-02T05:07:17;24.80;;;13.43;;
66587;SDS011;53446;50.076;8.198;2024-03-02T05:09:18;28.93;;;14.07;;
66587;SDS011;53446;50.076;8.198;2024-03-02T05:11:18;25.97;;;12.83;;
66587;SDS011;53446;50.076;8.198;2024-03-02T05:13:37;50.38;;;24.48;;
66587;SDS011;53446;50.076;8.198;2024-03-02T05:15:37;29.03;;;15.33;;
66587;SDS011;53446;50.076;8.198;2024-03-02T05:17:38;27.90;;;14.63;;
66587;SDS011;53446;50.076;8.198;2024-03-02T05:19:43;29.48;;;14.27;;
66587;SDS011;53446;50.076;8.198;2024-03-02T05:21:43;26.20;;;14.10;;
66587;SDS011;53446;50.076;8.198;2024-03-02T05:23:43;28.63;;;14.23;;
66587;SDS011;53446;50.076;8.198;2024-03-02T05:25:44;30.00;;;14.82;;
66587;SDS011;53446;50.076;8.198;2024-03-02T05:27:45;26.13;;;13.25;;
66587;SDS011;53446;50.076;8.198;2024-03-02T05:29:46;26.45;;;12.77;;
66587;SDS011;53446;50.076;8.198;2024-03-02T05:31:47;43.95;;;25.42;;
66587;SDS011;53446;50.076;8.198;2024-03-02T05:33:47;25.35;;;13.63;;
66587;SDS011;53446;50.076;8.198;2024-03-02T05:35:48;30.80;;;14.90;;
66587;SDS011;53446;50.076;8.198;2024-03-02T05:37:52;26.88;;;14.05;;
66587;SDS011;53446;50.076;8.198;2024-03-02T05:39:52;26.50;;;13.80;;
66587;SDS011;53446;50.076;8.198;2024-03-02T05:41:53;25.55;;;12.55;;
66587;SDS011;53446;50.076;8.198;2024-03-02T05:43:53;26.57;;;13.43;;
66587;SDS011;53446;50.076;8.198;2024-03-02T05:45:54;20.77;;;10.80;;
66587;SDS011;53446;50.076;8.198;2024-03-02T05:47:54;21.97;;;11.70;;
66587;SDS011;53446;50.076;8.198;2024-03-02T05:49:54;25.47;;;14.37;;
66587;SDS011;53446;50.076;8.198;2024-03-02T05:51:54;24.80;;;12.23;;
66587;SDS011;53446;50.076;8.198;2024-03-02T05:53:55;25.60;;;13.05;;
66587;SDS011;53446;50.076;8.198;2024-03-02T05:55:55;23.65;;;14.65;;
66587;SDS011;53446;50.076;8.198;2024-03-02T05:57:55;18.93;;;11.10;;
66587;SDS011;53446;50.076;8.198;2024-03-02T06:00:16;22.55;;;11.32;;
66587;SDS011;53446;50.076;8.198;2024-03-02T06:02:17;19.53;;;10.90;;
66587;SDS011;53446;50.076;8.198;2024-03-02T06:04:17;21.13;;;11.37;;
66587;SDS011;53446;50.076;8.198;2024-03-02T06:06:18;21.45;;;11.55;;
66587;SDS011;53446;50.076;8.198;2024-03-02T06:08:18;21.77;;;11.70;;
66587;SDS011;53446;50.076;8.198;2024-03-02T06:10:18;21.80;;;11.77;;
66587;SDS011;53446;50.076;8.198;2024-03-02T06:12:18;22.10;;;11.33;;
66587;SDS011;53446;50.076;8.198;2024-03-02T06:14:19;21.83;;;12.00;;
66587;SDS011;53446;50.076;8.198;2024-03-02T06:16:19;24.27;;;12.33;;
66587;SDS011;53446;50.076;8.198;2024-03-02T06:18:19;22.07;;;12.70;;
66587;SDS011;53446;50.076;8.198;2024-03-02T06:20:20;25.93;;;12.23;;
66587;SDS011;53446;50.076;8.198;2024-03-02T06:22:20;24.70;;;12.80;;
66587;SDS011;53446;50.076;8.198;2024-03-02T06:24:21;63.75;;;40.72;;
66587;SDS011;53446;50.076;8.198;2024-03-02T06:26:21;41.70;;;24.63;;
66587;SDS011;53446;50.076;8.198;2024-03-02T06:28:21;24.10;;;13.63;;
66587;SDS011;53446;50.076;8.198;2024-03-02T06:30:22;27.20;;;16.98;;
66587;SDS011;53446;50.076;8.198;2024-03-02T06:32:22;25.17;;;14.18;;
66587;SDS011;53446;50.076;8.198;2024-03-02T06:34:24;26.40;;;15.32;;
66587;SDS011;53446;50.076;8.198;2024-03-02T06:36:24;22.73;;;12.73;;
66587;SDS011;53446;50.076;8.198;2024-03-02T06:38:24;26.17;;;14.13;;
66587;SDS011;53446;50.076;8.198;2024-03-02T06:40:25;24.50;;;13.43;;
66587;SDS011;53446;50.076;8.198;2024-03-02T06:42:26;24.57;;;13.43;;
66587;SDS011;53446;50.076;8.198;2024-03-02T06:44:26;20.87;;;11.00;;
66587;SDS011;53446;50.076;8.198;2024-03-02T06:46:26;22.50;;;12.97;;
66587;SDS011;53446;50.076;8.198;2024-03-02T06:48:26;23.53;;;13.67;;
66587;SDS011;53446;50.076;8.198;2024-03-02T06:50:28;26.23;;;13.57;;
66587;SDS011;53446;50.076;8.198;2024-03-02T06:52:29;25.57;;;14.97;;
66587;SDS011;53446;50.076;8.198;2024-03-02T06:54:29;19.33;;;10.73;;
66587;SDS011;53446;50.076;8.198;2024-03-02T06:56:29;26.93;;;15.30;;
66587;SDS011;53446;50.076;8.198;2024-03-02T06:58:30;25.25;;;13.57;;
66587;SDS011;53446;50.076;8.198;2024-03-02T07:00:31;26.97;;;13.90;;
66587;SDS011;53446;50.076;8.198;2024-03-02T07:02:31;28.03;;;15.23;;
66587;SDS011;53446;50.076;8.198;2024-03-02T07:04:31;26.90;;;15.43;;
66587;SDS011;53446;50.076;8.198;2024-03-02T07:06:32;21.97;;;11.60;;
66587;SDS011;53446;50.076;8.198;2024-03-02T07:08:32;19.47;;;11.83;;
66587;SDS011;53446;50.076;8.198;2024-03-02T07:10:33;21.08;;;12.73;;
66587;SDS011;53446;50.076;8.198;2024-03-02T07:12:33;21.27;;;12.47;;
66587;SDS011;53446;50.076;8.198;2024-03-02T07:14:34;26.20;;;16.03;;
66587;SDS011;53446;50.076;8.198;2024-03-02T07:16:53;23.58;;;12.05;;
66587;SDS011;53446;50.076;8.198;2024-03-02T07:18:54;23.20;;;13.40;;
66587;SDS011;53446;50.076;8.198;2024-03-02T07:20:56;31.07;;;17.00;;
66587;SDS011;53446;50.076;8.198;2024-03-02T07:23:01;23.13;;;12.18;;
66587;SDS011;53446;50.076;8.198;2024-03-02T07:25:01;22.77;;;12.50;;
66587;SDS011;53446;50.076;8.198;2024-03-02T07:27:02;22.45;;;12.80;;
66587;SDS011;53446;50.076;8.198;2024-03-02T07:29:03;20.23;;;12.13;;
66587;SDS011;53446;50.076;8.198;2024-03-02T07:31:04;19.00;;;10.90;;
66587;SDS011;53446;50.076;8.198;2024-03-02T07:33:05;21.23;;;12.40;;
66587;SDS011;53446;50.076;8.198;2024-03-02T07:35:05;20.00;;;11.87;;
66587;SDS011;53446;50.076;8.198;2024-03-02T07:37:06;19.10;;;10.83;;
66587;SDS011;53446;50.076;8.198;2024-03-02T07:39:06;17.23;;;9.75;;
66587;SDS011;53446;50.076;8.198;2024-03-02T07:41:07;15.73;;;9.77;;
66587;SDS011;53446;50.076;8.198;2024-03-02T07:43:08;16.58;;;9.18;;
66587;SDS011;53446;50.076;8.198;2024-03-02T07:45:09;18.53;;;10.03;;
66587;SDS011;53446;50.076;8.198;2024-03-02T07:47:09;17.88;;;10.18;;
66587;SDS011;53446;50.076;8.198;2024-03-02T07:49:10;17.10;;;9.53;;
66587;SDS011;53446;50.076;8.198;2024-03-02T07:51:10;20.53;;;13.17;;
66587;SDS011;53446;50.076;8.198;2024-03-02T07:53:10;19.73;;;11.37;;
66587;SDS011;53446;50.076;8.198;2024-03-02T07:55:11;20.23;;;11.10;;
66587;SDS011;53446;50.076;8.198;2024-03-02T07:57:11;18.83;;;10.67;;
66587;SDS011;53446;50.076;8.198;2024-03-02T07:59:12;17.27;;;9.80;;
66587;SDS011;53446;50.076;8.198;2024-03-02T08:01:12;18.67;;;9.70;;
66587;SDS011;53446;50.076;8.198;2024-03-02T08:03:12;17.77;;;9.53;;
66587;SDS011;53446;50.076;8.198;2024-03-02T08:05:13;18.27;;;10.00;;
66587;SDS011;53446;50.076;8.198;2024-03-02T08:07:14;16.60;;;10.13;;
66587;SDS011;53446;50.076;8.198;2024-03-02T08:09:14;15.45;;;8.70;;
66587;SDS011;53446;50.076;8.198;2024-03-02T08:11:14;16.77;;;9.17;;
66587;SDS011;53446;50.076;8.198;2024-03-02T08:13:15;15.00;;;8.73;;
66587;SDS011;53446;50.076;8.198;2024-03-02T08:15:15;16.57;;;9.20;;
66587;SDS011;53446;50.076;8.198;2024-03-02T08:17:15;13.70;;;8.27;;
66587;SDS011;53446;50.076;8.198;2024-03-02T08:19:16;15.77;;;9.57;;
66587;SDS011;53446;50.076;8.198;2024-03-02T08:21:16;16.23;;;8.82;;
66587;SDS011;53446;50.076;8.198;2024-03-02T08:23:17;12.60;;;7.57;;
66587;SDS011;53446;50.076;8.198;2024-03-02T08:25:17;15.53;;;9.47;;
66587;SDS011;53446;50.076;8.198;2024-03-02T08:27:18;14.10;;;7.67;;
66587;SDS011;53446;50.076;8.198;2024-03-02T08:29:18;16.98;;;9.50;;
66587;SDS011;53446;50.076;8.198;2024-03-02T08:31:19;17.30;;;9.40;;
66587;SDS011;53446;50.076;8.198;2024-03-02T08:33:20;13.85;;;8.32;;
66587;SDS011;53446;50.076;8.198;2024-03-02T08:35:20;14.52;;;8.48;;
66587;SDS011;53446;50.076;8.198;2024-03-02T08:37:22;14.63;;;8.57;;
66587;SDS011;53446;50.076;8.198;2024-03-02T08:39:22;16.43;;;9.40;;
66587;SDS011;53446;50.076;8.198;2024-03-02T08:41:22;15.53;;;8.97;;
66587;SDS011;53446;50.076;8.198;2024-03-02T08:43:23;16.25;;;9.30;;
66587;SDS011;53446;50.076;8.198;2024-03-02T08:45:23;17.37;;;9.43;;
66587;SDS011;53446;50.076;8.198;2024-03-02T08:47:24;15.07;;;8.80;;
66587;SDS011;53446;50.076;8.198;2024-03-02T08:49:24;18.23;;;9.27;;
66587;SDS011;53446;50.076;8.198;2024-03-02T08:51:24;15.60;;;8.90;;
66587;SDS011;53446;50.076;8.198;2024-03-02T08:53:25;15.17;;;9.10;;
66587;SDS011;53446;50.076;8.198;2024-03-02T08:55:25;15.47;;;8.60;;
66587;SDS011;53446;50.076;8.198;2024-03-02T08:57:25;13.20;;;8.27;;
66587;SDS011;53446;50.076;8.198;2024-03-02T08:59:25;15.63;;;8.83;;
66587;SDS011;53446;50.076;8.198;2024-03-02T09:01:27;16.02;;;9.88;;
66587;SDS011;53446;50.076;8.198;2024-03-02T09:03:28;15.00;;;8.57;;
66587;SDS011;53446;50.076;8.198;2024-03-02T09:05:28;14.60;;;9.17;;
66587;SDS011;53446;50.076;8.198;2024-03-02T09:07:28;16.10;;;8.93;;
66587;SDS011;53446;50.076;8.198;2024-03-02T09:09:29;14.23;;;8.70;;
66587;SDS011;53446;50.076;8.198;2024-03-02T09:11:31;14.77;;;8.27;;
66587;SDS011;53446;50.076;8.198;2024-03-02T09:13:32;14.75;;;8.85;;
66587;SDS011;53446;50.076;8.198;2024-03-02T09:15:33;15.38;;;8.85;;
66587;SDS011;53446;50.076;8.198;2024-03-02T09:17:37;15.48;;;8.27;;
66587;SDS011;53446;50.076;8.198;2024-03-02T09:19:37;17.87;;;8.70;;
66587;SDS011;53446;50.076;8.198;2024-03-02T09:21:38;15.37;;;8.40;;
66587;SDS011;53446;50.076;8.198;2024-03-02T09:23:38;14.60;;;8.20;;
66587;SDS011;53446;50.076;8.198;2024-03-02T09:25:40;15.15;;;8.60;;
66587;SDS011;53446;50.076;8.198;2024-03-02T09:27:40;15.23;;;8.80;;
66587;SDS011;53446;50.076;8.198;2024-03-02T09:29:40;13.33;;;8.37;;
66587;SDS011;53446;50.076;8.198;2024-03-02T09:31:41;13.25;;;8.85;;
66587;SDS011;53446;50.076;8.198;2024-03-02T09:33:42;15.20;;;8.80;;
66587;SDS011;53446;50.076;8.198;2024-03-02T09:35:42;16.33;;;9.70;;
66587;SDS011;53446;50.076;8.198;2024-03-02T09:37:42;13.77;;;8.60;;
66587;SDS011;53446;50.076;8.198;2024-03-02T09:39:43;16.10;;;9.52;;
66587;SDS011;53446;50.076;8.198;2024-03-02T09:41:45;17.08;;;9.60;;
66587;SDS011;53446;50.076;8.198;2024-03-02T09:43:45;15.70;;;9.37;;
66587;SDS011;53446;50.076;8.198;2024-03-02T09:45:45;15.88;;;9.10;;
66587;SDS011;53446;50.076;8.198;2024-03-02T09:47:46;16.67;;;8.73;;
66587;SDS011;53446;50.076;8.198;2024-03-02T09:49:47;14.97;;;8.67;;
66587;SDS011;53446;50.076;8.198;2024-03-02T09:51:47;15.10;;;8.70;;
66587;SDS011;53446;50.076;8.198;2024-03-02T09:53:49;14.32;;;8.02;;
66587;SDS011;53446;50.076;8.198;2024-03-02T09:55:49;13.83;;;8.37;;
66587;SDS011;53446;50.076;8.198;2024-03-02T09:57:50;14.37;;;8.77;;
66587;SDS011;53446;50.076;8.198;2024-03-02T09:59:51;14.75;;;8.82;;
66587;SDS011;53446;50.076;8.198;2024-03-02T10:01:57;12.93;;;8.33;;
66587;SDS011;53446;50.076;8.198;2024-03-02T10:03:59;13.02;;;7.90;;
66587;SDS011;53446;50.076;8.198;2024-03-02T10:08:20;14.15;;;8.20;;
66587;SDS011;53446;50.076;8.198;2024-03-02T10:10:20;16.35;;;9.63;;
66587;SDS011;53446;50.076;8.198;2024-03-02T10:12:20;15.77;;;9.00;;
66587;SDS011;53446;50.076;8.198;2024-03-02T10:14:22;14.35;;;8.13;;
66587;SDS011;53446;50.076;8.198;2024-03-02T10:16:22;13.30;;;8.60;;
66587;SDS011;53446;50.076;8.198;2024-03-02T10:18:26;14.50;;;8.30;;
66587;SDS011;53446;50.076;8.198;2024-03-02T10:20:27;17.13;;;9.43;;
66587;SDS011;53446;50.076;8.198;2024-03-02T10:22:32;19.20;;;9.57;;
66587;SDS011;53446;50.076;8.198;2024-03-02T10:26:45;14.10;;;8.85;;
66587;SDS011;53446;50.076;8.198;2024-03-02T10:28:46;14.23;;;8.43;;
66587;SDS011;53446;50.076;8.198;2024-03-02T10:30:47;14.38;;;8.90;;
66587;SDS011;53446;50.076;8.198;2024-03-02T10:32:49;17.93;;;12.87;;
66587;SDS011;53446;50.076;8.198;2024-03-02T10:34:49;14.77;;;9.05;;
66587;SDS011;53446;50.076;8.198;2024-03-02T10:36:50;15.67;;;8.57;;
66587;SDS011;53446;50.076;8.198;2024-03-02T10:38:50;14.60;;;9.02;;
66587;SDS011;53446;50.076;8.198;2024-03-02T10:40:55;14.73;;;8.77;;
66587;SDS011;53446;50.076;8.198;2024-03-02T10:43:00;14.95;;;9.02;;
66587;SDS011;53446;50.076;8.198;2024-03-02T10:45:03;16.83;;;10.30;;
66587;SDS011;53446;50.076;8.198;2024-03-02T10:47:05;19.40;;;9.20;;
66587;SDS011;53446;50.076;8.198;2024-03-02T10:49:05;14.53;;;9.57;;
66587;SDS011;53446;50.076;8.198;2024-03-02T10:51:06;16.33;;;9.50;;
66587;SDS011;53446;50.076;8.198;2024-03-02T10:53:06;15.70;;;9.10;;
66587;SDS011;53446;50.076;8.198;2024-03-02T10:55:07;13.70;;;9.07;;
66587;SDS011;53446;50.076;8.198;2024-03-02T10:57:09;13.90;;;8.57;;
66587;SDS011;53446;50.076;8.198;2024-03-02T11:01:20;14.27;;;9.20;;
66587;SDS011;53446;50.076;8.198;2024-03-02T11:03:21;13.48;;;8.30;;
66587;SDS011;53446;50.076;8.198;2024-03-02T11:05:28;14.57;;;8.80;;
66587;SDS011;53446;50.076;8.198;2024-03-02T11:07:31;13.40;;;8.10;;
66587;SDS011;53446;50.076;8.198;2024-03-02T11:09:33;14.25;;;8.88;;
66587;SDS011;53446;50.076;8.198;2024-03-02T11:11:36;14.75;;;8.57;;
66587;SDS011;53446;50.076;8.198;2024-03-02T11:13:37;12.15;;;8.27;;
66587;SDS011;53446;50.076;8.198;2024-03-02T11:15:43;12.38;;;8.00;;
66587;SDS011;53446;50.076;8.198;2024-03-02T11:17:44;11.63;;;7.18;;
66587;SDS011;53446;50.076;8.198;2024-03-02T11:19:46;13.95;;;8.30;;
66587;SDS011;53446;50.076;8.198;2024-03-02T11:21:47;16.73;;;9.40;;
66587;SDS011;53446;50.076;8.198;2024-03-02T11:23:48;54.33;;;27.08;;
66587;SDS011;53446;50.076;8.198;2024-03-02T11:25:48;51.13;;;23.63;;
66587;SDS011;53446;50.076;8.198;2024-03-02T11:29:49;18.50;;;10.13;;
66587;SDS011;53446;50.076;8.198;2024-03-02T11:31:57;15.27;;;8.57;;
66587;SDS011;53446;50.076;8.198;2024-03-02T11:34:14;13.27;;;8.25;;
66587;SDS011;53446;50.076;8.198;2024-03-02T11:36:17;13.80;;;8.55;;
66587;SDS011;53446;50.076;8.198;2024-03-02T11:38:18;14.30;;;8.80;;
66587;SDS011;53446;50.076;8.198;2024-03-02T11:40:21;12.10;;;8.25;;
66587;SDS011;53446;50.076;8.198;2024-03-02T11:42:22;12.52;;;7.60;;
66587;SDS011;53446;50.076;8.198;2024-03-02T11:44:24;14.25;;;8.30;;
66587;SDS011;53446;50.076;8.198;2024-03-02T11:46:26;13.27;;;8.10;;
66587;SDS011;53446;50.076;8.198;2024-03-02T11:48:26;14.30;;;7.97;;
66587;SDS011;53446;50.076;8.198;2024-03-02T11:50:28;12.75;;;8.70;;
66587;SDS011;53446;50.076;8.198;2024-03-02T11:52:39;14.15;;;8.05;;
66587;SDS011;53446;50.076;8.198;2024-03-02T11:54:42;13.05;;;8.57;;
66587;SDS011;53446;50.076;8.198;2024-03-02T11:56:46;11.23;;;8.10;;
66587;SDS011;53446;50.076;8.198;2024-03-02T11:58:47;10.88;;;8.02;;
66587;SDS011;53446;50.076;8.198;2024-03-02T12:00:52;12.37;;;8.43;;
66587;SDS011;53446;50.076;8.198;2024-03-02T12:05:02;13.55;;;8.85;;
66587;SDS011;53446;50.076;8.198;2024-03-02T13:03:31;8.47;;;6.43;;